Time;durP1;ratioP1;P1;durP2;ratioP2;P2;SDS_P1;SDS_P2;PMS_P1;PMS_P2;Temp;Humidity;BMP_temperature;BMP_pressure;BME280_temperature;BME280_humidity;BME280_pressure;Samples;Min_cycle;Max_cycle;Signal;HPM_P1;HPM_P2
2022/07/30 00:01:20;;;;;;;4.68;2.40;;;18.70;78.80;;;;;;5113290;28;20153;-45
2022/07/30 00:03:47;;;;;;;3.72;2.40;;;18.70;78.50;;;;;;5095090;28;20379;-44
2022/07/30 00:06:13;;;;;;;6.50;2.50;;;18.70;78.40;;;;;;5113018;28;20019;-44
2022/07/30 00:08:38;;;;;;;4.20;2.42;;;18.70;78.30;;;;;;5113231;28;20055;-45
2022/07/30 00:11:04;;;;;;;5.13;2.60;;;18.70;78.40;;;;;;5112721;28;20023;-45
2022/07/30 00:13:32;;;;;;;4.32;2.15;;;18.70;78.60;;;;;;5094943;28;20080;-45
2022/07/30 00:15:58;;;;;;;4.47;2.90;;;18.70;78.60;;;;;;5095219;28;20410;-46
2022/07/30 00:18:24;;;;;;;3.20;2.13;;;18.70;78.80;;;;;;5112659;28;20093;-45
2022/07/30 00:20:49;;;;;;;5.88;2.60;;;18.70;79.30;;;;;;5112652;28;20028;-45
2022/07/30 00:23:15;;;;;;;4.90;2.83;;;18.70;79.40;;;;;;5094845;28;20085;-44
2022/07/30 00:25:40;;;;;;;6.38;2.65;;;18.70;79.60;;;;;;5095146;28;20023;-44
2022/07/30 00:28:08;;;;;;;5.13;2.35;;;18.70;79.80;;;;;;5112975;28;20024;-46
2022/07/30 00:30:34;;;;;;;4.53;2.10;;;18.70;80.00;;;;;;5113061;28;20030;-45
2022/07/30 00:33:02;;;;;;;4.35;2.65;;;18.60;80.10;;;;;;5094604;28;20020;-45
2022/07/30 00:35:30;;;;;;;4.68;2.58;;;18.60;80.20;;;;;;5112554;28;20081;-45
2022/07/30 00:37:56;;;;;;;5.00;2.53;;;18.60;80.30;;;;;;5112982;28;20349;-43
2022/07/30 00:40:22;;;;;;;5.10;2.70;;;18.60;80.60;;;;;;5112668;28;20080;-44
2022/07/30 00:42:48;;;;;;;8.27;3.88;;;18.60;80.80;;;;;;5074258;28;20074;-47
2022/07/30 00:45:14;;;;;;;5.22;2.40;;;18.60;80.90;;;;;;5091069;28;20020;-46
2022/07/30 00:47:43;;;;;;;4.68;2.50;;;18.60;81.20;;;;;;5092135;28;20047;-45
2022/07/30 00:50:11;;;;;;;8.27;2.47;;;18.60;81.40;;;;;;5092075;28;20028;-45
2022/07/30 00:52:39;;;;;;;11.25;2.67;;;18.50;81.60;;;;;;5092250;28;20021;-44
2022/07/30 00:55:07;;;;;;;5.78;2.80;;;18.50;81.80;;;;;;5092098;28;20026;-44
2022/07/30 00:57:33;;;;;;;4.53;2.50;;;18.50;81.90;;;;;;5091896;28;20024;-45
2022/07/30 00:59:59;;;;;;;5.43;2.45;;;18.40;82.20;;;;;;5090930;28;20042;-44
2022/07/30 01:02:24;;;;;;;3.92;2.22;;;18.40;82.30;;;;;;5091558;28;20074;-44
2022/07/30 01:04:50;;;;;;;5.47;2.53;;;18.40;82.60;;;;;;5091759;28;20039;-44
2022/07/30 01:07:16;;;;;;;7.53;2.60;;;18.40;82.70;;;;;;5091799;28;20463;-45
2022/07/30 01:09:41;;;;;;;6.40;2.58;;;18.30;82.90;;;;;;5091525;28;20039;-45
2022/07/30 01:12:10;;;;;;;6.25;3.15;;;18.30;83.10;;;;;;5091569;28;20345;-46
2022/07/30 01:14:39;;;;;;;3.92;2.08;;;18.30;83.20;;;;;;5090888;28;20051;-46
2022/07/30 01:17:05;;;;;;;5.10;2.90;;;18.30;83.50;;;;;;5091698;28;20045;-44
2022/07/30 01:19:54;;;;;;;4.60;2.60;;;18.30;83.70;;;;;;5090620;28;20024;-46
2022/07/30 01:22:20;;;;;;;5.72;2.55;;;18.30;83.80;;;;;;5091460;28;20032;-45
2022/07/30 01:25:04;;;;;;;3.90;2.58;;;18.30;83.80;;;;;;5090426;28;20059;-45
2022/07/30 01:27:58;;;;;;;4.65;2.80;;;18.30;83.90;;;;;;5090353;28;20445;-47
2022/07/30 01:30:27;;;;;;;4.72;2.60;;;18.30;84.00;;;;;;5088132;28;20036;-43
2022/07/30 01:32:59;;;;;;;4.70;3.20;;;18.30;84.00;;;;;;5090078;28;20024;-45
2022/07/30 01:35:28;;;;;;;8.23;3.05;;;18.30;84.10;;;;;;5090922;28;20039;-43
2022/07/30 01:37:55;;;;;;;6.63;3.10;;;18.20;84.30;;;;;;5090252;28;20032;-45
2022/07/30 01:40:22;;;;;;;4.78;2.70;;;18.30;84.40;;;;;;5091134;28;20024;-45
2022/07/30 01:42:54;;;;;;;5.95;2.95;;;18.30;84.70;;;;;;5109655;28;20040;-44
2022/07/30 01:45:22;;;;;;;4.68;2.40;;;18.20;84.90;;;;;;5093141;28;20030;-44
2022/07/30 01:47:52;;;;;;;7.07;2.80;;;18.20;85.00;;;;;;5093449;28;20027;-44
2022/07/30 01:50:18;;;;;;;;;;;18.20;85.20;;;;;;5112068;28;20015;-45
2022/07/30 01:52:46;;;;;;;8.45;4.05;;;18.10;85.60;;;;;;5110465;28;19915;-45
2022/07/30 01:55:18;;;;;;;7.40;4.05;;;18.10;85.80;;;;;;5111027;28;20020;-44
2022/07/30 01:57:47;;;;;;;7.38;3.00;;;18.10;86.20;;;;;;5111262;28;20020;-43
2022/07/30 02:00:15;;;;;;;4.45;2.80;;;18.10;86.10;;;;;;5111231;28;20031;-44
2022/07/30 02:02:41;;;;;;;7.30;3.25;;;18.10;86.00;;;;;;5093150;28;20318;-44
2022/07/30 02:05:08;;;;;;;7.13;3.65;;;18.10;86.00;;;;;;5110973;28;20100;-45
2022/07/30 02:07:33;;;;;;;5.13;2.83;;;18.00;86.10;;;;;;5111129;28;20043;-43
2022/07/30 02:10:06;;;;;;;5.57;2.80;;;18.00;86.30;;;;;;5110940;28;20448;-43
2022/07/30 02:12:35;;;;;;;4.65;3.25;;;18.00;86.40;;;;;;5110816;28;20056;-44
2022/07/30 02:15:22;;;;;;;6.18;3.47;;;18.00;86.50;;;;;;5110572;28;20019;-45
2022/07/30 02:18:19;;;;;;;10.18;4.03;;;17.90;86.80;;;;;;5110633;28;20084;-44
2022/07/30 02:20:54;;;;;;;8.85;3.50;;;17.90;86.90;;;;;;5100910;28;20114;-45
2022/07/30 02:23:22;;;;;;;5.38;3.10;;;17.90;87.00;;;;;;5110498;28;20027;-43
2022/07/30 02:25:50;;;;;;;8.30;4.03;;;17.90;87.00;;;;;;5110558;28;20034;-44
2022/07/30 02:28:18;;;;;;;4.35;2.90;;;17.90;87.00;;;;;;5110490;28;20030;-47
2022/07/30 02:30:52;;;;;;;6.95;3.22;;;17.90;87.10;;;;;;5093100;28;20023;-44
2022/07/30 02:33:22;;;;;;;4.63;3.40;;;17.80;87.10;;;;;;5110483;28;20028;-49
2022/07/30 02:35:50;;;;;;;5.43;3.70;;;17.80;87.00;;;;;;5110350;28;20025;-45
2022/07/30 02:38:18;;;;;;;10.48;3.97;;;17.70;87.10;;;;;;5110502;28;20027;-45
2022/07/30 02:40:44;;;;;;;7.15;4.20;;;17.70;87.20;;;;;;5092202;28;20038;-44
2022/07/30 02:43:15;;;;;;;7.30;4.28;;;17.60;87.40;;;;;;5110331;28;20081;-44
2022/07/30 02:45:43;;;;;;;9.93;4.53;;;17.60;88.00;;;;;;5110142;28;20080;-44
2022/07/30 02:48:10;;;;;;;9.07;3.80;;;17.60;88.20;;;;;;5110380;28;20020;-43
2022/07/30 02:50:38;;;;;;;6.40;3.90;;;17.60;88.00;;;;;;5110432;28;20085;-44
2022/07/30 02:53:10;;;;;;;6.70;4.05;;;17.60;88.00;;;;;;5092505;28;20024;-44
2022/07/30 02:55:39;;;;;;;8.30;4.90;;;17.60;88.10;;;;;;5110263;28;20436;-43
2022/07/30 02:58:05;;;;;;;10.02;4.95;;;17.60;88.10;;;;;;5110084;28;20031;-44
2022/07/30 03:00:33;;;;;;;7.32;4.00;;;17.60;88.20;;;;;;5092182;28;20119;-45
2022/07/30 03:02:59;;;;;;;7.55;4.40;;;17.60;88.30;;;;;;5110092;28;20037;-44
2022/07/30 03:05:26;;;;;;;9.13;4.53;;;17.60;88.40;;;;;;5092235;28;20065;-45
2022/07/30 03:07:55;;;;;;;7.97;4.55;;;17.60;88.40;;;;;;5091967;28;20114;-45
2022/07/30 03:10:23;;;;;;;6.50;4.32;;;17.60;88.50;;;;;;5109894;28;20016;-45
2022/07/30 03:12:50;;;;;;;8.67;4.40;;;17.60;88.60;;;;;;5110049;28;20020;-44
2022/07/30 03:15:16;;;;;;;6.53;4.50;;;17.60;88.60;;;;;;5110088;28;20057;-45
2022/07/30 03:17:53;;;;;;;7.60;4.80;;;17.60;88.60;;;;;;5109915;28;20056;-44
2022/07/30 03:20:22;;;;;;;8.70;6.40;;;17.60;88.70;;;;;;5110339;28;20355;-46
2022/07/30 03:22:51;;;;;;;7.77;5.40;;;17.50;88.70;;;;;;5109742;27;20032;-43
2022/07/30 03:25:22;;;;;;;10.18;5.50;;;17.50;88.70;;;;;;5113635;28;20035;-45
2022/07/30 03:27:49;;;;;;;7.25;5.28;;;17.50;88.70;;;;;;5096014;28;20032;-46
2022/07/30 03:30:15;;;;;;;6.47;5.15;;;17.50;88.70;;;;;;5114002;28;20024;-44
2022/07/30 03:32:42;;;;;;;8.65;6.80;;;17.40;88.70;;;;;;5095919;28;20101;-48
2022/07/30 03:35:09;;;;;;;9.18;6.10;;;17.40;88.70;;;;;;5079079;28;20058;-44
2022/07/30 03:37:40;;;;;;;7.43;5.13;;;17.30;88.80;;;;;;5114142;28;20049;-43
2022/07/30 03:40:07;;;;;;;9.38;5.68;;;17.30;88.90;;;;;;5113697;28;20023;-44
2022/07/30 03:42:34;;;;;;;8.75;5.47;;;17.20;88.80;;;;;;5113726;28;20090;-44
2022/07/30 03:45:05;;;;;;;12.07;5.63;;;17.10;88.80;;;;;;5095781;28;20028;-45
2022/07/30 03:47:33;;;;;;;11.40;5.20;;;17.20;88.80;;;;;;5113679;28;20456;-44
2022/07/30 03:50:02;;;;;;;7.70;6.30;;;17.10;88.60;;;;;;5095513;28;20368;-44
2022/07/30 03:52:31;;;;;;;7.90;5.30;;;17.00;88.60;;;;;;5095852;28;20119;-46
2022/07/30 03:54:57;;;;;;;9.18;6.55;;;16.90;88.70;;;;;;5113402;28;20400;-45
2022/07/30 03:57:24;;;;;;;7.40;6.63;;;16.90;88.70;;;;;;5113624;28;20106;-45
2022/07/30 03:59:50;;;;;;;7.53;6.65;;;16.80;88.80;;;;;;5095482;28;20528;-43
2022/07/30 04:02:16;;;;;;;9.77;6.95;;;16.80;89.00;;;;;;5095107;28;20440;-44
2022/07/30 04:04:42;;;;;;;12.98;6.90;;;16.80;89.00;;;;;;5113304;28;20027;-44
2022/07/30 04:07:10;;;;;;;8.50;7.10;;;16.70;89.00;;;;;;5113321;28;20016;-44
2022/07/30 04:09:36;;;;;;;9.85;6.60;;;16.70;89.10;;;;;;5095322;28;20030;-44
2022/07/30 04:12:02;;;;;;;10.25;7.20;;;16.70;89.20;;;;;;5113011;28;20033;-46
2022/07/30 04:14:42;;;;;;;7.88;7.03;;;16.70;89.10;;;;;;5113325;28;20024;-45
2022/07/30 04:17:37;;;;;;;12.02;8.50;;;16.70;89.20;;;;;;5094920;28;20347;-45
2022/07/30 04:20:28;;;;;;;10.68;7.95;;;16.60;89.30;;;;;;5105171;28;20043;-45
2022/07/30 04:22:57;;;;;;;9.38;7.20;;;16.60;89.50;;;;;;5112918;28;20023;-45
2022/07/30 04:25:24;;;;;;;7.95;6.50;;;16.60;89.50;;;;;;5112740;28;20135;-46
2022/07/30 04:27:53;;;;;;;11.57;7.63;;;16.60;89.30;;;;;;5094956;28;20039;-45
2022/07/30 04:30:18;;;;;;;9.57;8.00;;;16.60;89.40;;;;;;5095122;28;20092;-45
2022/07/30 04:32:44;;;;;;;13.32;9.75;;;16.70;89.40;;;;;;5112950;28;20019;-47
2022/07/30 04:35:10;;;;;;;9.57;8.25;;;16.70;89.40;;;;;;5112523;28;20027;-45
2022/07/30 04:37:38;;;;;;;11.48;8.02;;;16.70;89.40;;;;;;5112772;28;20359;-45
2022/07/30 04:40:04;;;;;;;11.25;6.97;;;16.70;89.40;;;;;;5112878;28;20032;-47
2022/07/30 04:42:34;;;;;;;11.18;7.57;;;16.70;89.40;;;;;;5112626;28;20487;-44
2022/07/30 04:45:02;;;;;;;11.25;7.22;;;16.80;89.40;;;;;;5112477;28;20435;-45
2022/07/30 04:47:28;;;;;;;8.32;7.30;;;16.80;89.40;;;;;;5112542;28;20037;-44
2022/07/30 04:49:54;;;;;;;11.38;7.90;;;16.80;89.40;;;;;;5112570;28;20314;-45
2022/07/30 04:52:24;;;;;;;9.95;7.65;;;16.90;89.30;;;;;;5112434;28;20028;-43
2022/07/30 04:54:52;;;;;;;;;;;16.90;89.40;;;;;;5095628;28;20380;-43
2022/07/30 04:57:19;;;;;;;10.13;6.70;;;16.90;89.40;;;;;;5112343;28;19907;-45
2022/07/30 04:59:45;;;;;;;9.60;6.35;;;16.80;89.30;;;;;;5094323;28;20106;-44
2022/07/30 05:02:11;;;;;;;9.98;6.70;;;16.90;89.50;;;;;;5112142;28;20182;-44
2022/07/30 05:04:39;;;;;;;9.73;6.60;;;16.90;89.50;;;;;;5093985;28;20458;-44
2022/07/30 05:07:05;;;;;;;8.88;6.28;;;16.90;89.60;;;;;;5112264;28;20024;-44
2022/07/30 05:09:32;;;;;;;9.23;6.97;;;16.90;89.60;;;;;;5094349;28;20030;-45
2022/07/30 05:12:00;;;;;;;9.95;7.45;;;17.00;89.50;;;;;;5112062;28;20098;-44
2022/07/30 05:14:28;;;;;;;7.82;7.10;;;17.00;89.50;;;;;;5111886;28;20667;-44
2022/07/30 05:16:54;;;;;;;12.27;10.90;;;17.10;89.40;;;;;;5111788;28;20356;-44
2022/07/30 05:19:20;;;;;;;9.68;8.10;;;17.10;89.10;;;;;;5093875;28;20126;-46
2022/07/30 05:21:46;;;;;;;9.13;8.23;;;17.10;89.30;;;;;;5111902;28;20024;-44
2022/07/30 05:24:12;;;;;;;8.65;7.85;;;17.10;89.40;;;;;;5111014;28;20114;-45
2022/07/30 05:26:43;;;;;;;9.90;8.07;;;17.10;89.30;;;;;;5111215;28;20479;-45
2022/07/30 05:29:09;;;;;;;17.27;9.27;;;17.20;89.40;;;;;;5111246;28;20115;-45
2022/07/30 05:31:34;;;;;;;13.07;10.32;;;17.30;89.50;;;;;;5111379;28;20115;-44
2022/07/30 05:34:02;;;;;;;13.80;11.20;;;17.40;89.50;;;;;;5110954;28;20538;-44
2022/07/30 05:36:28;;;;;;;13.90;12.40;;;17.40;89.30;;;;;;5110480;28;20032;-45
2022/07/30 05:38:53;;;;;;;13.48;11.95;;;17.40;89.90;;;;;;5111136;28;20049;-44
2022/07/30 05:41:19;;;;;;;15.45;12.45;;;17.50;90.20;;;;;;5089345;28;20051;-44
2022/07/30 05:43:45;;;;;;;14.73;12.00;;;17.60;90.20;;;;;;5090504;28;20024;-43
2022/07/30 05:46:11;;;;;;;11.95;10.52;;;17.60;90.20;;;;;;5089647;28;20023;-44
2022/07/30 05:48:40;;;;;;;16.98;14.15;;;17.70;90.20;;;;;;5090262;28;20125;-44
2022/07/30 05:51:05;;;;;;;14.07;11.95;;;17.70;90.20;;;;;;5090174;28;20106;-44
2022/07/30 05:53:31;;;;;;;14.40;11.27;;;17.70;90.10;;;;;;5088912;28;20103;-44
2022/07/30 05:55:59;;;;;;;17.92;12.65;;;17.80;90.00;;;;;;5089988;28;20257;-44
2022/07/30 05:58:25;;;;;;;12.65;10.10;;;17.90;90.00;;;;;;5090136;28;20032;-45
2022/07/30 06:00:50;;;;;;;16.58;12.27;;;17.90;90.00;;;;;;5089684;28;20054;-44
2022/07/30 06:03:16;;;;;;;13.63;11.43;;;18.00;90.00;;;;;;5090607;28;20034;-44
2022/07/30 06:05:42;;;;;;;17.52;11.63;;;18.10;90.00;;;;;;5090471;28;20569;-44
2022/07/30 06:08:07;;;;;;;14.63;10.95;;;18.20;90.10;;;;;;5090617;28;20024;-45
2022/07/30 06:10:33;;;;;;;13.13;11.45;;;18.30;90.00;;;;;;5089567;28;20085;-45
2022/07/30 06:12:59;;;;;;;16.08;10.38;;;18.40;90.20;;;;;;5090702;28;20107;-44
2022/07/30 06:15:25;;;;;;;11.13;9.35;;;18.50;89.90;;;;;;5090495;28;20344;-44
2022/07/30 06:17:51;;;;;;;15.57;9.10;;;18.50;90.00;;;;;;5090460;28;20042;-44
2022/07/30 06:20:18;;;;;;;10.45;7.63;;;18.60;89.90;;;;;;5090858;28;20103;-45
2022/07/30 06:22:43;;;;;;;13.63;7.70;;;18.80;89.80;;;;;;5090372;28;20101;-45
2022/07/30 06:25:12;;;;;;;11.25;6.93;;;18.90;89.80;;;;;;5090409;28;20028;-45
2022/07/30 06:27:38;;;;;;;11.00;6.95;;;18.90;89.20;;;;;;5090043;28;20419;-45
2022/07/30 06:30:10;;;;;;;8.40;4.80;;;19.00;88.70;;;;;;5090439;28;20063;-45
2022/07/30 06:32:36;;;;;;;9.88;4.57;;;19.10;88.50;;;;;;5089484;28;20055;-44
2022/07/30 06:35:03;;;;;;;9.75;4.90;;;19.20;88.60;;;;;;5089612;28;20417;-44
2022/07/30 06:37:29;;;;;;;7.50;4.63;;;19.20;88.50;;;;;;5089411;28;20496;-46
2022/07/30 06:39:55;;;;;;;8.52;4.80;;;19.30;88.40;;;;;;5088347;28;20036;-45
2022/07/30 06:42:20;;;;;;;12.23;5.65;;;19.40;88.10;;;;;;5104678;28;20051;-43
2022/07/30 06:44:48;;;;;;;9.68;6.07;;;19.40;87.40;;;;;;5110312;28;20328;-44
2022/07/30 06:47:28;;;;;;;10.95;6.20;;;19.40;87.40;;;;;;5110129;28;20095;-45
2022/07/30 06:49:55;;;;;;;9.77;5.70;;;19.50;86.80;;;;;;5109962;28;20098;-45
2022/07/30 06:52:20;;;;;;;10.15;5.30;;;19.60;86.40;;;;;;5110503;28;20043;-44
2022/07/30 06:54:47;;;;;;;10.32;4.85;;;19.70;86.50;;;;;;5110174;28;20031;-44
2022/07/30 06:57:13;;;;;;;15.27;4.95;;;19.70;85.90;;;;;;5110344;28;20099;-45
2022/07/30 06:59:39;;;;;;;8.85;4.95;;;19.80;85.70;;;;;;5109086;28;20027;-45
2022/07/30 07:02:07;;;;;;;9.88;4.65;;;19.80;84.70;;;;;;5109954;28;20406;-45
2022/07/30 07:04:33;;;;;;;10.45;4.90;;;19.90;85.50;;;;;;5091960;28;20080;-44
2022/07/30 07:06:58;;;;;;;8.82;4.60;;;19.90;85.10;;;;;;5110215;28;20039;-46
2022/07/30 07:09:24;;;;;;;9.18;5.00;;;20.00;85.50;;;;;;5092069;28;20034;-44
2022/07/30 07:11:50;;;;;;;8.98;5.13;;;20.10;85.30;;;;;;5092040;28;20016;-46
2022/07/30 07:14:16;;;;;;;9.05;5.03;;;20.20;84.40;;;;;;5109758;28;20034;-46
2022/07/30 07:16:42;;;;;;;8.95;4.82;;;20.20;84.40;;;;;;5109984;28;20024;-45
2022/07/30 07:19:10;;;;;;;8.30;5.00;;;20.30;83.90;;;;;;5109977;28;20044;-46
2022/07/30 07:21:36;;;;;;;9.43;4.20;;;20.40;83.00;;;;;;5092082;28;20134;-48
2022/07/30 07:24:02;;;;;;;11.73;4.55;;;20.40;82.50;;;;;;5109753;28;20200;-45
2022/07/30 07:26:29;;;;;;;7.63;3.42;;;20.50;82.30;;;;;;5109866;28;20024;-45
2022/07/30 07:28:55;;;;;;;10.23;3.78;;;20.60;81.90;;;;;;5109689;28;20032;-46
2022/07/30 07:31:21;;;;;;;8.70;4.03;;;20.80;82.20;;;;;;5109885;28;20031;-44
2022/07/30 07:33:47;;;;;;;8.18;3.60;;;20.90;81.30;;;;;;5109784;28;20081;-46
2022/07/30 07:36:13;;;;;;;14.13;3.83;;;21.20;79.90;;;;;;5091574;28;20441;-44
2022/07/30 07:38:39;;;;;;;8.85;3.05;;;21.60;80.70;;;;;;5109660;28;20349;-46
2022/07/30 07:41:05;;;;;;;7.57;4.00;;;22.10;78.30;;;;;;5088221;28;20048;-45
2022/07/30 07:43:31;;;;;;;8.30;3.60;;;22.50;76.70;;;;;;5089342;28;20357;-45
2022/07/30 07:45:57;;;;;;;10.70;4.00;;;23.00;75.90;;;;;;5089011;28;20096;-46
2022/07/30 07:48:23;;;;;;;6.97;3.35;;;23.40;72.50;;;;;;5088318;28;20028;-45
2022/07/30 07:50:49;;;;;;;9.13;3.05;;;23.60;70.30;;;;;;5089209;28;20025;-47
2022/07/30 07:53:15;;;;;;;8.88;3.45;;;23.90;69.10;;;;;;5088134;28;20052;-46
2022/07/30 07:55:42;;;;;;;8.65;3.03;;;24.00;68.70;;;;;;5088985;28;20071;-46
2022/07/30 07:58:12;;;;;;;4.22;2.25;;;24.20;68.40;;;;;;5089247;28;20052;-46
2022/07/30 08:00:38;;;;;;;;;;;24.60;66.20;;;;;;5089927;28;20075;-46
2022/07/30 08:03:04;;;;;;;5.85;1.88;;;24.80;64.50;;;;;;5089278;28;20333;-46
2022/07/30 08:05:29;;;;;;;6.10;2.88;;;25.30;65.30;;;;;;5088007;28;20119;-46
2022/07/30 08:07:55;;;;;;;5.07;2.55;;;25.60;59.30;;;;;;5088816;28;20016;-46
2022/07/30 08:10:23;;;;;;;4.45;2.08;;;25.70;59.40;;;;;;5091045;28;20359;-46
2022/07/30 08:12:48;;;;;;;8.15;2.88;;;26.10;59.00;;;;;;5092072;28;20059;-46
2022/07/30 08:15:17;;;;;;;5.53;2.10;;;26.40;55.90;;;;;;5091767;28;20062;-46
2022/07/30 08:17:46;;;;;;;4.68;2.30;;;26.40;55.90;;;;;;5091800;28;20034;-46
2022/07/30 08:20:14;;;;;;;6.22;2.78;;;26.80;55.30;;;;;;5093184;28;20381;-46
2022/07/30 08:22:40;;;;;;;4.78;2.00;;;26.70;54.40;;;;;;5091861;28;20119;-47
2022/07/30 08:25:06;;;;;;;8.15;3.05;;;26.60;53.00;;;;;;5091510;28;20114;-47
2022/07/30 08:27:32;;;;;;;4.47;2.78;;;26.50;53.50;;;;;;5092356;28;20099;-47
2022/07/30 08:29:57;;;;;;;3.70;1.95;;;26.70;52.80;;;;;;5092833;28;20103;-46
2022/07/30 08:32:23;;;;;;;6.22;2.67;;;27.10;53.30;;;;;;5092528;28;20031;-47
2022/07/30 08:34:49;;;;;;;5.40;2.45;;;27.60;52.00;;;;;;5091328;28;20038;-48
2022/07/30 08:37:17;;;;;;;5.22;1.98;;;27.50;51.90;;;;;;5090959;28;20497;-47
2022/07/30 08:39:42;;;;;;;5.18;2.15;;;27.40;50.10;;;;;;5092424;28;20059;-46
2022/07/30 08:42:08;;;;;;;6.80;2.25;;;27.40;50.00;;;;;;5105066;28;20452;-48
2022/07/30 08:44:35;;;;;;;5.20;2.35;;;27.00;51.10;;;;;;5094732;28;20034;-47
2022/07/30 08:47:02;;;;;;;5.50;2.40;;;27.20;51.90;;;;;;5112353;28;20031;-47
2022/07/30 08:49:30;;;;;;;5.90;2.85;;;27.30;52.30;;;;;;5094458;28;20027;-53
2022/07/30 08:51:58;;;;;;;4.40;2.78;;;27.50;51.30;;;;;;5112538;28;20019;-50
2022/07/30 08:54:24;;;;;;;5.32;2.90;;;27.60;51.00;;;;;;5112547;28;20055;-49
2022/07/30 08:56:49;;;;;;;4.47;2.33;;;27.80;49.90;;;;;;5112171;28;20410;-47
2022/07/30 08:59:16;;;;;;;4.78;2.33;;;27.60;51.10;;;;;;5094197;28;20028;-49
2022/07/30 09:01:42;;;;;;;6.00;2.75;;;27.90;50.70;;;;;;5112548;28;20027;-47
2022/07/30 09:04:08;;;;;;;4.45;2.05;;;28.20;49.70;;;;;;5112134;28;20042;-49
2022/07/30 09:06:34;;;;;;;4.95;2.25;;;28.40;50.40;;;;;;5094003;28;20019;-47
2022/07/30 09:09:00;;;;;;;4.70;2.38;;;28.50;49.50;;;;;;5112188;28;20114;-52
2022/07/30 09:11:26;;;;;;;3.85;1.77;;;28.50;47.00;;;;;;5094264;28;20108;-47
2022/07/30 09:13:51;;;;;;;6.75;2.47;;;28.50;46.80;;;;;;5112346;28;20440;-47
2022/07/30 09:16:21;;;;;;;4.88;2.33;;;28.50;47.50;;;;;;5111819;28;20094;-48
2022/07/30 09:18:47;;;;;;;4.90;2.22;;;28.40;48.30;;;;;;5093955;28;20031;-49
2022/07/30 09:21:17;;;;;;;4.47;2.20;;;28.50;47.40;;;;;;5111274;28;20016;-48
2022/07/30 09:24:03;;;;;;;5.55;2.45;;;28.90;50.20;;;;;;5111877;28;20027;-48
2022/07/30 09:26:31;;;;;;;6.05;2.22;;;28.80;47.00;;;;;;5093425;28;20031;-52
2022/07/30 09:29:18;;;;;;;4.97;2.60;;;29.00;48.20;;;;;;5111673;28;20348;-49
2022/07/30 09:31:57;;;;;;;6.05;2.72;;;28.80;47.30;;;;;;5111586;28;20059;-47
2022/07/30 09:34:33;;;;;;;4.93;2.13;;;29.30;48.60;;;;;;5111808;28;20604;-49
2022/07/30 09:37:17;;;;;;;3.55;2.10;;;29.40;48.80;;;;;;5111165;28;20032;-47
2022/07/30 09:39:46;;;;;;;4.28;1.90;;;28.70;43.90;;;;;;5111605;28;20035;-50
2022/07/30 09:42:26;;;;;;;6.00;1.90;;;28.40;48.00;;;;;;5111430;28;20047;-48
2022/07/30 09:45:12;;;;;;;6.50;2.63;;;28.60;47.20;;;;;;5093215;28;20053;-48
2022/07/30 09:47:49;;;;;;;4.28;2.40;;;28.80;47.10;;;;;;5111359;28;20120;-51
2022/07/30 09:50:18;;;;;;;4.88;2.83;;;29.30;45.50;;;;;;5093309;28;20317;-50
2022/07/30 09:52:44;;;;;;;;;;;29.00;45.30;;;;;;5093892;28;20451;-49
2022/07/30 09:55:13;;;;;;;4.43;2.00;;;29.20;46.20;;;;;;5111318;28;19953;-48
2022/07/30 09:57:57;;;;;;;4.43;1.90;;;29.30;45.80;;;;;;5110968;28;20096;-48
2022/07/30 10:00:27;;;;;;;4.82;2.25;;;29.60;48.20;;;;;;5111218;28;20027;-49
2022/07/30 10:02:54;;;;;;;3.65;1.77;;;29.70;45.20;;;;;;5111555;28;20410;-51
2022/07/30 10:05:21;;;;;;;4.07;2.33;;;29.60;43.40;;;;;;5110738;28;20128;-51
2022/07/30 10:07:50;;;;;;;3.80;1.90;;;29.60;44.90;;;;;;5110858;28;20121;-47
2022/07/30 10:10:18;;;;;;;4.80;2.20;;;29.40;44.40;;;;;;5111165;28;20012;-48
2022/07/30 10:12:45;;;;;;;5.40;2.08;;;29.50;44.10;;;;;;5111050;28;20027;-51
2022/07/30 10:15:13;;;;;;;4.47;2.28;;;29.50;45.90;;;;;;5111046;28;20030;-47
2022/07/30 10:17:40;;;;;;;5.50;2.17;;;29.50;48.90;;;;;;5110321;28;20024;-47
2022/07/30 10:20:10;;;;;;;4.45;2.80;;;29.40;48.70;;;;;;5111116;28;20122;-52
2022/07/30 10:22:37;;;;;;;5.28;2.22;;;29.40;48.70;;;;;;5110857;28;20110;-49
2022/07/30 10:25:04;;;;;;;4.57;2.50;;;29.50;52.10;;;;;;5092726;28;20034;-47
2022/07/30 10:27:30;;;;;;;6.25;2.28;;;29.60;52.30;;;;;;5092569;28;20036;-51
2022/07/30 10:29:59;;;;;;;3.75;2.17;;;29.80;53.50;;;;;;5092706;28;20038;-47
2022/07/30 10:32:26;;;;;;;7.13;2.85;;;29.80;48.80;;;;;;5110741;28;20023;-47
2022/07/30 10:34:52;;;;;;;3.80;2.10;;;29.00;48.60;;;;;;5110540;28;20391;-47
2022/07/30 10:37:20;;;;;;;5.95;2.20;;;29.10;50.00;;;;;;5092246;28;20085;-47
2022/07/30 10:40:00;;;;;;;5.38;2.35;;;28.90;48.50;;;;;;5110570;28;20106;-50
2022/07/30 10:42:31;;;;;;;6.07;2.70;;;28.50;48.40;;;;;;5110322;28;20395;-50
2022/07/30 10:45:11;;;;;;;6.88;2.22;;;28.40;48.50;;;;;;5110405;28;20023;-47
2022/07/30 10:47:38;;;;;;;5.18;2.75;;;28.40;51.00;;;;;;5092096;28;20024;-48
2022/07/30 10:50:13;;;;;;;6.18;2.50;;;28.40;50.00;;;;;;5110093;28;20437;-48
2022/07/30 10:52:50;;;;;;;6.20;2.42;;;27.80;48.90;;;;;;5110343;28;20498;-51
2022/07/30 10:55:19;;;;;;;5.45;2.30;;;27.40;51.40;;;;;;5110179;28;20103;-47
2022/07/30 10:58:11;;;;;;;5.82;2.50;;;27.20;54.40;;;;;;5092701;28;20019;-48
2022/07/30 11:00:51;;;;;;;5.43;2.53;;;26.90;54.40;;;;;;5092355;28;20059;-47
2022/07/30 11:03:26;;;;;;;4.78;2.67;;;27.10;55.20;;;;;;5110132;28;20050;-49
2022/07/30 11:06:15;;;;;;;5.95;2.25;;;27.10;53.60;;;;;;5109886;28;20035;-49
2022/07/30 11:08:44;;;;;;;8.37;2.73;;;27.10;51.80;;;;;;5109761;28;20437;-48
2022/07/30 11:11:35;;;;;;;7.05;3.08;;;27.20;56.70;;;;;;5092140;28;20710;-48
2022/07/30 11:14:01;;;;;;;5.45;2.88;;;27.40;61.60;;;;;;5100553;28;20035;-49
2022/07/30 11:16:33;;;;;;;9.50;3.08;;;27.10;58.40;;;;;;5109727;28;20019;-47
2022/07/30 11:19:03;;;;;;;5.00;2.50;;;27.30;60.40;;;;;;5109925;28;20106;-49
2022/07/30 11:21:32;;;;;;;5.50;3.13;;;26.90;59.60;;;;;;5092205;28;20372;-47
2022/07/30 11:24:00;;;;;;;7.95;3.25;;;26.50;60.50;;;;;;5109780;28;20340;-47
2022/07/30 11:26:38;;;;;;;7.00;3.40;;;26.90;61.50;;;;;;5092052;28;20020;-47
2022/07/30 11:29:42;;;;;;;10.38;3.95;;;26.60;61.60;;;;;;5110046;28;20019;-48
2022/07/30 11:32:30;;;;;;;6.82;3.30;;;26.60;65.20;;;;;;5109922;28;20099;-47
2022/07/30 11:35:17;;;;;;;7.10;2.77;;;26.70;62.40;;;;;;5109749;28;20726;-47
2022/07/30 11:38:01;;;;;;;5.68;2.72;;;26.50;62.20;;;;;;5109369;28;20027;-46
2022/07/30 11:40:31;;;;;;;7.13;3.22;;;26.10;61.80;;;;;;5109616;28;20023;-49
2022/07/30 11:43:15;;;;;;;;;;;25.70;62.10;;;;;;5109969;28;20077;-49
2022/07/30 11:45:44;;;;;;;6.28;3.20;;;25.30;64.00;;;;;;5112275;28;19918;-47
2022/07/30 11:48:14;;;;;;;5.82;3.35;;;24.90;66.40;;;;;;5113696;28;20011;-46
2022/07/30 11:50:41;;;;;;;7.35;3.42;;;25.00;66.30;;;;;;5095126;28;20024;-50
2022/07/30 11:53:18;;;;;;;6.65;3.55;;;25.20;65.60;;;;;;5113600;28;20020;-46
2022/07/30 11:55:55;;;;;;;6.90;3.53;;;25.30;64.20;;;;;;5113771;28;20051;-46
2022/07/30 11:58:31;;;;;;;7.95;4.70;;;25.40;63.80;;;;;;5095588;28;20437;-46
2022/07/30 12:01:02;;;;;;;6.57;3.78;;;25.50;64.00;;;;;;5113558;28;20447;-48
2022/07/30 12:03:32;;;;;;;7.10;4.00;;;25.70;62.80;;;;;;5095548;28;20031;-46
2022/07/30 12:06:06;;;;;;;5.57;3.10;;;25.70;63.30;;;;;;5113441;28;20084;-47
2022/07/30 12:08:46;;;;;;;8.18;3.45;;;26.00;60.80;;;;;;5113264;28;20022;-47
2022/07/30 12:11:12;;;;;;;11.60;3.80;;;26.10;58.20;;;;;;5113127;28;20023;-46
2022/07/30 12:13:42;;;;;;;7.68;3.22;;;26.20;59.40;;;;;;5095435;28;20032;-46
2022/07/30 12:16:09;;;;;;;4.82;2.60;;;26.10;59.50;;;;;;5095211;28;20103;-47
2022/07/30 12:18:35;;;;;;;5.72;3.05;;;25.70;60.30;;;;;;5113338;28;20488;-46
2022/07/30 12:21:02;;;;;;;6.18;2.97;;;25.40;59.90;;;;;;5113147;28;20127;-46
2022/07/30 12:23:29;;;;;;;4.78;2.72;;;25.30;60.80;;;;;;5095237;28;20114;-46
2022/07/30 12:25:55;;;;;;;6.43;2.65;;;25.40;60.10;;;;;;5112871;28;20039;-46
2022/07/30 12:28:26;;;;;;;6.00;2.60;;;25.20;59.80;;;;;;5078025;28;20019;-48
2022/07/30 12:30:53;;;;;;;5.57;3.03;;;25.00;58.60;;;;;;5113067;28;20028;-47
2022/07/30 12:33:19;;;;;;;5.00;2.70;;;24.80;59.40;;;;;;5112931;28;20080;-46
2022/07/30 12:35:47;;;;;;;4.72;2.67;;;24.50;58.90;;;;;;5112986;28;20039;-48
2022/07/30 12:38:14;;;;;;;5.43;3.15;;;24.20;58.80;;;;;;5112701;28;20023;-45
2022/07/30 12:40:55;;;;;;;7.97;3.47;;;24.30;61.00;;;;;;5112634;28;20024;-46
2022/07/30 12:43:44;;;;;;;10.30;3.45;;;24.50;61.40;;;;;;5094916;28;20039;-47
2022/07/30 12:46:11;;;;;;;11.25;3.50;;;24.80;60.70;;;;;;5094565;28;20019;-49
2022/07/30 12:48:37;;;;;;;8.82;3.20;;;25.10;58.80;;;;;;5094538;28;20036;-50
2022/07/30 12:51:06;;;;;;;6.25;2.88;;;25.10;60.40;;;;;;5112691;28;20032;-46
2022/07/30 12:53:32;;;;;;;7.03;2.88;;;25.10;59.30;;;;;;5112446;28;20044;-46
2022/07/30 12:56:12;;;;;;;9.73;3.22;;;25.10;61.10;;;;;;5111404;28;20401;-48